Time;durP1;ratioP1;P1;durP2;ratioP2;P2;SDS_P1;SDS_P2;PMS_P1;PMS_P2;Temp;Humidity;BMP_temperature;BMP_pressure;BME280_temperature;BME280_humidity;BME280_pressure;Samples;Min_cycle;Max_cycle;Signal;HPM_P1;HPM_P2
2021/12/20 00:04:05;;;;;;;10.03;2.53;;;;;;;0.60;100.00;100579.42;3613632;80;34777;-86
2021/12/20 00:09:06;;;;;;;7.27;2.03;;;;;;;0.64;100.00;100584.44;3595170;80;98719;-86
2021/12/20 00:14:07;;;;;;;7.23;2.17;;;;;;;0.67;100.00;100575.72;3606113;80;98734;-85
2021/12/20 00:19:11;;;;;;;4.63;1.70;;;;;;;0.72;100.00;100573.67;3605941;80;98915;-85
2021/12/20 00:24:12;;;;;;;5.70;1.43;;;;;;;0.75;100.00;100573.06;3615042;80;99000;-87
2021/12/20 00:29:12;;;;;;;3.13;1.30;;;;;;;0.79;100.00;100588.95;3605099;80;98625;-86
2021/12/20 00:34:13;;;;;;;5.53;1.50;;;;;;;0.83;100.00;100588.56;3606723;80;36145;-86
2021/12/20 00:44:34;;;;;;;3.67;1.30;;;;;;;0.74;100.00;100586.91;3613653;80;98544;-86
2021/12/20 00:49:34;;;;;;;7.03;1.80;;;;;;;0.81;100.00;100611.11;3605614;80;98658;-86
2021/12/20 00:54:35;;;;;;;5.80;1.20;;;;;;;0.77;100.00;100604.70;3609057;80;98608;-87
2021/12/20 00:59:36;;;;;;;6.72;1.90;;;;;;;0.74;100.00;100610.75;3603723;80;99313;-86
2021/12/20 01:04:37;;;;;;;3.63;1.23;;;;;;;0.72;100.00;100621.64;3612400;80;36039;-86
2021/12/20 01:09:38;;;;;;;10.10;1.77;;;;;;;0.71;100.00;100623.53;3605942;80;98529;-87
2021/12/20 01:14:39;;;;;;;4.50;1.40;;;;;;;0.72;100.00;100614.30;3612882;80;98731;-87
2021/12/20 01:19:40;;;;;;;7.70;1.60;;;;;;;0.75;100.00;100596.63;3603397;80;98738;-86
2021/12/20 01:24:41;;;;;;;6.87;1.90;;;;;;;0.79;100.00;100608.45;3609109;80;97869;-86
2021/12/20 01:29:41;;;;;;;8.10;2.67;;;;;;;0.81;100.00;100607.05;3605689;80;98610;-86
2021/12/20 01:34:42;;;;;;;6.37;2.23;;;;;;;0.84;100.00;100596.96;3605115;80;32775;-86
2021/12/20 01:39:43;;;;;;;2.77;1.13;;;;;;;0.91;100.00;100601.38;3604206;80;98537;-87
2021/12/20 01:44:45;;;;;;;5.73;1.57;;;;;;;0.91;100.00;100601.38;3607559;80;98461;-87
2021/12/20 01:50:11;;;;;;;7.27;1.57;;;;;;;0.85;100.00;100581.48;3592825;80;98666;-87
2021/12/20 01:55:11;;;;;;;5.57;0.90;;;;;;;0.99;100.00;100598.48;3607484;80;98966;-87
2021/12/20 02:00:20;;;;;;;4.42;1.10;;;;;;;1.01;100.00;100601.13;3615941;80;98695;-86
2021/12/20 02:05:27;;;;;;;3.17;1.00;;;;;;;1.05;100.00;100613.51;3604222;80;98736;-86
2021/12/20 02:10:24;;;;;;;3.87;1.00;;;;;;;1.07;100.00;100608.56;3607205;80;98616;-86
2021/12/20 02:15:25;;;;;;;3.87;1.20;;;;;;;1.08;100.00;100602.84;3611660;80;98477;-86
2021/12/20 02:20:29;;;;;;;4.57;1.30;;;;;;;1.11;100.00;100596.00;3597519;80;98907;-86
2021/12/20 02:25:31;;;;;;;7.55;1.27;;;;;;;1.12;100.00;100603.83;3608271;80;98616;-87
2021/12/20 02:41:08;;;;;;;3.73;1.30;;;;;;;1.14;100.00;100593.47;3607529;80;98746;-86
2021/12/20 02:51:39;;;;;;;5.33;1.60;;;;;;;1.08;100.00;100593.90;3602230;80;98581;-87
2021/12/20 02:56:42;;;;;;;5.25;1.30;;;;;;;1.02;100.00;100594.59;3602357;80;98488;-86
2021/12/20 03:01:48;;;;;;;3.93;1.30;;;;;;;0.96;100.00;100597.73;3598037;80;98730;-86
2021/12/20 03:06:57;;;;;;;3.40;1.30;;;;;;;0.87;100.00;100603.10;3599886;80;97955;-87
2021/12/20 03:11:59;;;;;;;5.35;2.35;;;;;;;0.82;100.00;100600.52;3605832;80;98699;-86
2021/12/20 03:17:00;;;;;;;7.93;1.43;;;;;;;0.81;100.00;100608.94;3603745;80;26174;-86
2021/12/20 03:22:03;;;;;;;6.53;2.10;;;;;;;0.78;100.00;100612.28;3595685;80;98350;-85
2021/12/20 03:27:06;;;;;;;5.80;2.13;;;;;;;0.73;100.00;100615.11;3596002;80;98456;-84
2021/12/20 03:32:07;;;;;;;5.65;1.30;;;;;;;0.72;100.00;100617.58;3601871;80;98777;-84
2021/12/20 03:37:08;;;;;;;5.30;1.30;;;;;;;0.71;100.00;100606.50;3614956;80;98732;-84
2021/12/20 03:42:09;;;;;;;5.57;1.47;;;;;;;0.67;100.00;100603.58;3604455;80;98862;-84
2021/12/20 03:47:10;;;;;;;5.03;1.60;;;;;;;0.65;100.00;100623.95;3609513;80;32464;-84
2021/12/20 03:52:11;;;;;;;4.47;1.30;;;;;;;0.60;100.00;100638.99;3606629;80;98398;-84
2021/12/20 03:57:12;;;;;;;4.50;1.43;;;;;;;0.59;100.00;100644.95;3614044;80;98809;-84
2021/12/20 04:02:17;;;;;;;3.07;1.47;;;;;;;0.55;100.00;100638.53;3605771;80;98997;-84
2021/12/20 04:07:16;;;;;;;5.43;1.77;;;;;;;0.51;100.00;100651.08;3612393;80;99020;-84
2021/12/20 04:12:17;;;;;;;4.90;1.50;;;;;;;0.47;100.00;100661.48;3607198;80;98600;-83
2021/12/20 04:17:18;;;;;;;4.17;1.50;;;;;;;0.43;100.00;100653.16;3615425;80;99089;-86
2021/12/20 04:22:19;;;;;;;6.13;1.50;;;;;;;0.39;100.00;100650.03;3604405;80;98419;-85
2021/12/20 04:27:20;;;;;;;3.87;1.23;;;;;;;0.34;100.00;100659.03;3607610;80;98522;-85
2021/12/20 04:32:21;;;;;;;11.07;2.10;;;;;;;0.28;100.00;100656.20;3607061;80;99026;-84
2021/12/20 04:37:22;;;;;;;3.97;1.67;;;;;;;0.25;100.00;100658.71;3616173;80;98830;-85
2021/12/20 04:42:22;;;;;;;6.07;1.90;;;;;;;0.22;100.00;100656.06;3605884;80;99165;-85
2021/12/20 04:47:23;;;;;;;7.73;1.93;;;;;;;0.18;100.00;100666.45;3613540;80;102587;-85
2021/12/20 04:52:24;;;;;;;9.67;2.20;;;;;;;0.14;100.00;100668.14;3598579;80;98578;-85
2021/12/20 04:57:25;;;;;;;4.70;1.50;;;;;;;0.10;100.00;100672.55;3610502;80;98472;-85
2021/12/20 05:02:26;;;;;;;6.33;1.67;;;;;;;0.08;100.00;100667.46;3605196;80;98971;-85
2021/12/20 05:07:27;;;;;;;5.13;1.70;;;;;;;0.04;100.00;100681.34;3614175;80;99085;-85
2021/12/20 05:12:29;;;;;;;7.33;1.93;;;;;;;0.03;100.00;100680.28;3598422;80;98723;-85
2021/12/20 05:17:30;;;;;;;6.17;1.97;;;;;;;0.01;100.00;100678.44;3618869;80;98658;-84
2021/12/20 05:22:31;;;;;;;8.43;1.83;;;;;;;0.00;100.00;100685.73;3609180;80;98933;-84
2021/12/20 05:27:32;;;;;;;7.13;2.40;;;;;;;0.00;100.00;100691.16;3604664;80;98489;-84
2021/12/20 05:32:33;;;;;;;5.07;1.43;;;;;;;0.00;100.00;100693.08;3610661;79;98676;-85
2021/12/20 05:37:34;;;;;;;4.93;1.87;;;;;;;0.01;100.00;100698.16;3606235;80;99226;-84
2021/12/20 05:42:34;;;;;;;9.60;2.77;;;;;;;-0.04;100.00;100681.24;3605244;80;98622;-84
2021/12/20 05:47:36;;;;;;;10.57;2.23;;;;;;;0.01;100.00;100710.33;3604328;80;99240;-84
2021/12/20 05:52:37;;;;;;;6.10;2.03;;;;;;;0.03;100.00;100730.33;3588425;79;98295;-85
2021/12/20 05:57:38;;;;;;;5.07;1.70;;;;;;;0.02;100.00;100733.58;3584670;82;98571;-84
2021/12/20 06:02:39;;;;;;;4.80;1.30;;;;;;;0.02;100.00;100732.80;3585787;81;98963;-85
2021/12/20 06:07:42;;;;;;;8.00;1.73;;;;;;;0.00;100.00;100728.25;3595325;81;98570;-84
2021/12/20 06:12:44;;;;;;;8.00;1.90;;;;;;;-0.02;100.00;100728.29;3583924;81;99007;-84
2021/12/20 06:17:45;;;;;;;10.47;2.20;;;;;;;-0.03;100.00;100742.36;3595253;81;98805;-84
2021/12/20 06:22:46;;;;;;;6.90;2.27;;;;;;;-0.08;100.00;100739.74;3583427;81;98426;-84
2021/12/20 06:27:47;;;;;;;8.40;2.10;;;;;;;-0.11;100.00;100743.84;3596695;81;98696;-84
2021/12/20 06:32:48;;;;;;;8.83;2.43;;;;;;;-0.13;100.00;100748.52;3579554;81;98578;-83
2021/12/20 06:37:59;;;;;;;6.13;2.10;;;;;;;-0.17;100.00;100760.45;3576256;82;98864;-84
2021/12/20 06:42:51;;;;;;;10.47;2.70;;;;;;;-0.20;100.00;100764.55;3713157;79;99249;-83
2021/12/20 06:47:52;;;;;;;9.17;2.17;;;;;;;-0.21;100.00;100772.42;3699050;78;101068;-83
2021/12/20 06:52:53;;;;;;;8.03;2.17;;;;;;;-0.21;100.00;100770.29;3701164;78;32936;-83
2021/12/20 06:57:54;;;;;;;7.93;2.27;;;;;;;-0.21;100.00;100781.89;3711062;78;98902;-84
2021/12/20 07:02:56;;;;;;;8.70;1.93;;;;;;;-0.21;100.00;100777.05;3713646;77;98626;-84
2021/12/20 07:07:57;;;;;;;7.10;2.23;;;;;;;-0.21;100.00;100785.95;3695743;78;99138;-83
2021/12/20 07:12:57;;;;;;;7.30;2.53;;;;;;;-0.21;100.00;100799.47;3718641;79;99296;-89
2021/12/20 07:17:59;;;;;;;8.57;2.60;;;;;;;-0.21;100.00;100800.04;3706285;79;99600;-88
2021/12/20 07:23:00;;;;;;;8.60;2.40;;;;;;;-0.22;100.00;100807.34;3714200;79;31636;-88
2021/12/20 07:28:01;;;;;;;7.17;3.00;;;;;;;-0.23;100.00;100807.63;3711061;78;99088;-84
2021/12/20 07:33:05;;;;;;;9.77;2.83;;;;;;;-0.23;100.00;100813.60;3722679;78;98707;-84
2021/12/20 07:38:10;;;;;;;8.70;2.67;;;;;;;-0.27;100.00;100817.98;3711420;78;98796;-85
2021/12/20 07:43:08;;;;;;;7.10;2.57;;;;;;;-0.26;100.00;100817.13;3712768;79;98796;-85
2021/12/20 07:48:09;;;;;;;11.27;3.40;;;;;;;-0.26;100.00;100819.84;3711337;78;99276;-85
2021/12/20 07:53:10;;;;;;;9.20;4.13;;;;;;;-0.23;100.00;100816.31;3718230;78;33423;-84
2021/12/20 07:58:11;;;;;;;10.97;3.73;;;;;;;-0.23;100.00;100821.15;3686979;78;98753;-84
2021/12/20 08:03:12;;;;;;;11.23;3.90;;;;;;;-0.21;100.00;100823.81;3657433;78;99263;-85
2021/12/20 08:08:13;;;;;;;11.60;4.35;;;;;;;-0.16;100.00;100837.25;3637090;79;99468;-85
2021/12/20 08:13:16;;;;;;;10.57;3.37;;;;;;;-0.07;100.00;100840.90;3659596;78;98973;-85
2021/12/20 08:18:16;;;;;;;8.77;2.83;;;;;;;0.04;100.00;100846.92;3681119;77;98997;-84
2021/12/20 08:23:18;;;;;;;8.47;2.93;;;;;;;0.22;100.00;100863.67;3695399;77;98779;-83
2021/12/20 08:28:19;;;;;;;8.18;2.87;;;;;;;0.44;100.00;100868.66;3688349;78;98649;-84
2021/12/20 08:33:20;;;;;;;12.87;3.93;;;;;;;0.81;100.00;100864.41;3646891;78;98410;-85
2021/12/20 08:38:21;;;;;;;9.10;2.73;;;;;;;1.10;100.00;100865.44;3652008;79;98797;-86
2021/12/20 08:43:22;;;;;;;7.40;2.70;;;;;;;1.19;100.00;100875.80;3653753;78;99211;-86
2021/12/20 08:48:22;;;;;;;9.27;3.33;;;;;;;1.22;100.00;100867.85;3633439;79;98573;-86
2021/12/20 08:53:23;;;;;;;13.17;3.43;;;;;;;1.23;100.00;100873.55;3671476;78;99110;-85
2021/12/20 08:58:25;;;;;;;11.68;3.02;;;;;;;1.25;100.00;100882.17;3645218;78;98786;-85
2021/12/20 09:03:27;;;;;;;11.67;3.50;;;;;;;1.24;100.00;100891.95;3678074;78;99275;-86
2021/12/20 09:08:30;;;;;;;12.10;4.50;;;;;;;1.20;100.00;100884.98;3676975;78;98844;-83
2021/12/20 09:13:31;;;;;;;12.17;3.93;;;;;;;1.14;100.00;100894.34;3686201;78;98867;-82
2021/12/20 09:18:32;;;;;;;11.05;3.70;;;;;;;1.13;100.00;100891.38;3595272;80;99144;-82
2021/12/20 09:23:32;;;;;;;9.80;3.47;;;;;;;1.11;100.00;100900.35;3603629;80;99297;-82
2021/12/20 09:28:34;;;;;;;11.90;4.10;;;;;;;1.15;100.00;100908.70;3598985;80;98777;-83
2021/12/20 09:33:36;;;;;;;9.47;4.20;;;;;;;1.21;100.00;100906.14;3601865;80;98657;-85
2021/12/20 09:38:37;;;;;;;8.30;2.67;;;;;;;1.32;100.00;100915.66;3584516;80;98764;-85
2021/12/20 09:43:46;;;;;;;5.50;1.90;;;;;;;1.50;100.00;100917.42;3586338;80;99297;-84
2021/12/20 09:48:49;;;;;;;6.87;2.40;;;;;;;1.64;100.00;100915.48;3609547;78;99063;-86
2021/12/20 09:53:51;;;;;;;7.23;2.47;;;;;;;1.71;100.00;100921.29;3638454;79;98622;-85
2021/12/20 09:58:57;;;;;;;7.80;2.57;;;;;;;1.78;100.00;100929.25;3671791;77;98304;-86
2021/12/20 10:03:58;;;;;;;7.65;2.40;;;;;;;1.85;100.00;100929.63;3725824;77;98445;-86
2021/12/20 10:09:09;;;;;;;11.80;2.73;;;;;;;1.93;100.00;100937.05;3654062;78;99115;-83
2021/12/20 10:14:09;;;;;;;12.20;3.70;;;;;;;1.98;100.00;100931.48;3718653;77;98747;-84
2021/12/20 10:19:38;;;;;;;9.45;3.08;;;;;;;2.08;100.00;100932.59;3682982;78;99031;-85
2021/12/20 10:24:38;;;;;;;7.77;2.70;;;;;;;2.14;100.00;100934.08;3692230;78;98591;-86
2021/12/20 10:29:39;;;;;;;7.73;2.47;;;;;;;2.22;100.00;100934.70;3695227;78;98626;-85
2021/12/20 10:34:40;;;;;;;7.57;2.57;;;;;;;2.30;100.00;100939.38;3700101;78;98719;-85
2021/12/20 10:39:45;;;;;;;11.70;3.53;;;;;;;2.37;100.00;100943.84;3691905;78;99027;-87
2021/12/20 10:45:12;;;;;;;10.23;3.63;;;;;;;2.44;100.00;100946.09;3695560;78;98787;-85
2021/12/20 10:50:30;;;;;;;9.60;3.43;;;;;;;2.51;100.00;100941.05;3690509;78;98994;-84
2021/12/20 10:55:39;;;;;;;11.47;3.70;;;;;;;2.65;100.00;100943.10;3626181;78;99074;-85
2021/12/20 11:00:40;;;;;;;9.68;3.87;;;;;;;2.74;100.00;100947.46;3571504;81;99225;-85
2021/12/20 11:06:38;;;;;;;8.93;3.77;;;;;;;2.82;100.00;100944.00;3579931;80;32268;-85
2021/12/20 11:11:14;;;;;;;6.37;2.10;;;;;;;2.86;100.00;100951.78;3670209;78;98741;-85
2021/12/20 11:16:32;;;;;;;8.67;2.90;;;;;;;2.95;100.00;100953.17;3624688;80;98695;-83
2021/12/20 11:21:40;;;;;;;8.47;2.93;;;;;;;3.05;100.00;100956.95;3620087;78;98774;-84
2021/12/20 11:26:41;;;;;;;6.83;2.83;;;;;;;3.06;100.00;100957.22;3614227;80;98653;-86
2021/12/20 11:31:45;;;;;;;9.73;4.23;;;;;;;2.95;100.00;100964.83;3617231;80;99301;-86
2021/12/20 11:36:46;;;;;;;6.47;2.90;;;;;;;2.83;100.00;100967.89;3621735;80;100503;-84
2021/12/20 11:41:47;;;;;;;8.10;2.50;;;;;;;2.82;100.00;100961.67;3713756;77;98672;-86
2021/12/20 11:47:02;;;;;;;8.95;3.75;;;;;;;2.82;100.00;100970.36;3713164;77;98774;-83
2021/12/20 11:52:19;;;;;;;8.97;3.30;;;;;;;2.83;100.00;100966.53;3632033;79;98836;-88
2021/12/20 11:57:38;;;;;;;;;;;;;;;2.80;100.00;100961.16;3725078;77;99023;-85
2021/12/20 12:02:43;;;;;;;9.63;2.77;;;;;;;2.84;100.00;100966.80;3712378;77;85385;-84
2021/12/20 12:07:47;;;;;;;7.20;2.27;;;;;;;2.84;100.00;100974.38;3722184;77;98733;-82
2021/12/20 12:12:55;;;;;;;6.60;1.60;;;;;;;2.86;100.00;100986.30;3707008;77;98989;-84
2021/12/20 12:17:59;;;;;;;5.55;1.50;;;;;;;2.88;100.00;100984.88;3713984;77;98974;-83
2021/12/20 12:23:22;;;;;;;3.50;1.10;;;;;;;2.85;99.71;100985.48;3642809;79;26619;-82
2021/12/20 12:28:30;;;;;;;3.47;1.40;;;;;;;2.83;99.12;100987.73;3716816;77;98443;-85
2021/12/20 12:33:39;;;;;;;4.73;1.30;;;;;;;2.78;97.96;100996.59;3715437;77;98441;-85
2021/12/20 12:38:50;;;;;;;4.50;1.23;;;;;;;2.68;97.08;101000.34;3717882;77;98569;-85
2021/12/20 12:44:00;;;;;;;4.87;1.70;;;;;;;2.63;96.67;101000.47;3723762;77;98475;-87
2021/12/20 12:49:26;;;;;;;7.37;2.77;;;;;;;2.53;96.51;100992.60;3626641;80;98771;-88
2021/12/20 12:54:44;;;;;;;2.67;1.20;;;;;;;2.47;96.50;101001.96;3706691;77;98902;-86
2021/12/20 12:59:54;;;;;;;2.67;1.37;;;;;;;2.42;96.23;101004.83;3716997;77;98560;-84
2021/12/20 13:05:17;;;;;;;4.27;1.33;;;;;;;2.36;96.31;101009.33;3718894;77;97995;-85
2021/12/20 13:10:32;;;;;;;5.53;1.67;;;;;;;2.28;96.05;101018.19;3714708;77;98498;-84
2021/12/20 13:15:41;;;;;;;5.83;1.80;;;;;;;2.23;96.23;101023.73;3726740;77;98575;-84
2021/12/20 13:21:01;;;;;;;8.60;2.10;;;;;;;2.14;95.94;101044.61;3731946;77;98600;-85
2021/12/20 13:26:01;;;;;;;5.60;1.40;;;;;;;2.13;96.29;101044.36;3748128;77;98711;-85
2021/12/20 13:31:12;;;;;;;2.63;1.00;;;;;;;2.11;97.16;101071.00;3734633;77;98856;-86
2021/12/20 13:36:18;;;;;;;5.00;1.40;;;;;;;1.95;97.71;101073.25;3745108;77;98546;-88
2021/12/20 13:41:22;;;;;;;;;;;;;;;1.85;98.13;101086.22;3736173;77;98407;-86
2021/12/20 13:46:41;;;;;;;3.30;1.40;;;;;;;1.74;98.37;101100.55;3719942;77;84694;-84
2021/12/20 13:51:43;;;;;;;5.27;1.60;;;;;;;1.69;98.64;101100.66;3693785;77;98270;-83
2021/12/20 13:57:11;;;;;;;5.80;1.57;;;;;;;1.65;98.76;101104.28;3749601;77;98795;-85
2021/12/20 14:02:17;;;;;;;4.80;1.60;;;;;;;1.59;98.86;101106.27;3737569;77;99126;-84
2021/12/20 14:07:32;;;;;;;4.78;1.87;;;;;;;1.57;98.85;101113.92;3742276;77;98481;-84
2021/12/20 14:12:52;;;;;;;4.37;1.80;;;;;;;1.55;98.51;101120.75;3735836;77;98529;-85
2021/12/20 14:18:13;;;;;;;6.53;1.87;;;;;;;1.53;98.34;101125.69;3719747;77;108317;-87
2021/12/20 14:23:28;;;;;;;9.10;2.87;;;;;;;1.51;98.06;101140.08;3677457;78;98337;-86
2021/12/20 14:28:33;;;;;;;4.07;1.60;;;;;;;1.49;97.75;101130.09;3767999;76;98729;-88
2021/12/20 14:33:38;;;;;;;5.90;2.07;;;;;;;1.47;97.03;101139.88;3759940;76;98530;-86
2021/12/20 14:38:52;;;;;;;5.20;1.40;;;;;;;1.45;97.05;101137.20;3764241;77;98589;-85
2021/12/20 14:43:56;;;;;;;4.75;1.37;;;;;;;1.43;96.58;101137.50;3766150;76;98471;-85
2021/12/20 14:49:11;;;;;;;7.97;2.95;;;;;;;1.42;96.52;101147.31;3767507;76;98510;-86
2021/12/20 14:54:16;;;;;;;8.20;2.60;;;;;;;1.38;96.31;101154.44;3775821;77;26555;-85
2021/12/20 14:59:19;;;;;;;9.85;2.52;;;;;;;1.32;96.10;101153.70;3767383;76;98206;-86
2021/12/20 15:04:22;;;;;;;7.97;3.02;;;;;;;1.29;96.43;101164.34;3775427;76;98445;-86
2021/12/20 15:09:26;;;;;;;8.45;2.55;;;;;;;1.24;96.14;101167.95;3757605;77;98515;-85
2021/12/20 15:14:27;;;;;;;4.20;1.90;;;;;;;1.19;96.05;101178.88;3758761;76;98732;-85
2021/12/20 15:19:29;;;;;;;6.00;1.83;;;;;;;1.14;95.07;101182.22;3776920;76;98955;-84
2021/12/20 15:24:30;;;;;;;6.40;2.00;;;;;;;1.10;94.47;101183.36;3769983;76;99036;-86
2021/12/20 15:29:33;;;;;;;5.60;1.90;;;;;;;1.06;94.39;101189.68;3783312;76;98589;-85
2021/12/20 15:34:35;;;;;;;10.27;3.87;;;;;;;1.01;93.80;101185.16;3706858;77;98890;-84
2021/12/20 15:39:36;;;;;;;13.53;5.62;;;;;;;1.00;94.25;101203.06;3702342;77;99003;-84
2021/12/20 15:44:37;;;;;;;43.50;17.73;;;;;;;0.96;94.15;101201.49;3714591;77;98636;-85
2021/12/20 15:49:38;;;;;;;64.63;27.37;;;;;;;0.92;94.13;101203.17;3713944;77;98904;-82
2021/12/20 15:54:39;;;;;;;20.23;7.47;;;;;;;0.92;94.13;101203.17;3709322;76;99227;-82
2021/12/20 15:59:40;;;;;;;13.70;3.77;;;;;;;0.89;93.75;101207.02;3703722;77;98407;-83
2021/12/20 16:04:43;;;;;;;10.67;3.37;;;;;;;0.84;93.26;101213.33;3693893;78;99075;-82
2021/12/20 16:09:45;;;;;;;10.17;3.33;;;;;;;0.80;93.09;101209.59;3691747;77;98860;-82
2021/12/20 16:14:48;;;;;;;8.67;3.27;;;;;;;0.76;92.85;101220.75;3717435;76;98672;-82
2021/12/20 16:19:49;;;;;;;8.87;3.37;;;;;;;0.69;92.79;101225.73;3708136;77;98607;-82
2021/12/20 16:24:51;;;;;;;10.30;3.10;;;;;;;0.63;91.84;101232.33;3714334;77;98458;-82
2021/12/20 16:30:03;;;;;;;8.27;2.67;;;;;;;0.53;91.84;101231.09;3711466;77;98475;-81
2021/12/20 16:35:07;;;;;;;8.87;2.87;;;;;;;0.45;91.91;101237.14;3710532;78;98299;-82
2021/12/20 16:40:13;;;;;;;12.87;6.00;;;;;;;0.41;92.36;101241.55;3695537;77;98747;-81
2021/12/20 16:45:29;;;;;;;17.62;7.15;;;;;;;0.32;92.31;101239.75;3709624;77;99061;-81
2021/12/20 16:50:25;;;;;;;13.20;5.07;;;;;;;0.27;92.85;101241.16;3696576;77;98823;-81
2021/12/20 16:55:28;;;;;;;13.28;5.70;;;;;;;0.20;93.50;101237.48;3713550;77;98705;-81
2021/12/20 17:00:30;;;;;;;11.47;4.30;;;;;;;0.17;94.09;101233.98;3701132;77;98921;-81
2021/12/20 17:05:46;;;;;;;10.03;4.00;;;;;;;0.15;94.43;101233.47;3697332;77;26350;-81
2021/12/20 17:10:37;;;;;;;15.35;6.28;;;;;;;0.13;94.65;101246.47;3714302;77;98580;-81
2021/12/20 17:15:40;;;;;;;53.37;20.83;;;;;;;0.08;94.70;101241.67;3718661;77;98705;-81
2021/12/20 17:20:45;;;;;;;71.33;28.20;;;;;;;0.05;94.82;101245.77;3699477;77;98806;-82
2021/12/20 17:25:48;;;;;;;36.23;16.07;;;;;;;0.02;95.18;101250.95;3716311;77;99182;-82
2021/12/20 17:30:49;;;;;;;13.80;6.40;;;;;;;-0.04;95.24;101258.30;3691357;77;98795;-82
2021/12/20 17:35:50;;;;;;;14.93;5.27;;;;;;;-0.09;95.40;101252.94;3697608;77;32224;-82
2021/12/20 17:40:51;;;;;;;15.27;5.10;;;;;;;-0.12;95.63;101261.39;3706577;77;99390;-82
2021/12/20 17:45:52;;;;;;;16.30;5.00;;;;;;;-0.17;95.85;101262.22;3715263;77;98999;-82
2021/12/20 17:50:54;;;;;;;19.30;6.07;;;;;;;-0.22;96.17;101268.50;3694972;77;98852;-82
2021/12/20 17:55:55;;;;;;;10.97;4.40;;;;;;;-0.24;96.59;101275.28;3711627;77;98902;-82
2021/12/20 18:00:56;;;;;;;12.30;5.07;;;;;;;-0.27;97.11;101270.99;3696874;77;98819;-83
2021/12/20 18:05:58;;;;;;;14.03;4.70;;;;;;;-0.27;97.50;101278.02;3704888;78;31693;-82
2021/12/20 18:11:01;;;;;;;11.03;4.73;;;;;;;-0.25;97.98;101284.50;3704025;77;99000;-82
2021/12/20 18:16:02;;;;;;;18.35;9.80;;;;;;;-0.24;98.46;101293.44;3729253;77;99179;-82
2021/12/20 18:21:03;;;;;;;14.40;5.60;;;;;;;-0.23;99.04;101293.69;3715470;77;98844;-83
2021/12/20 18:26:04;;;;;;;13.83;6.60;;;;;;;-0.22;99.16;101294.73;3745160;77;98903;-83
2021/12/20 18:31:05;;;;;;;16.33;6.60;;;;;;;-0.18;99.41;101301.76;3737566;77;98948;-83
2021/12/20 18:36:06;;;;;;;15.30;6.10;;;;;;;-0.16;99.70;101303.09;3742399;77;32170;-83
2021/12/20 18:41:07;;;;;;;14.37;6.03;;;;;;;-0.12;99.83;101300.62;3708979;77;99138;-84
2021/12/20 18:46:08;;;;;;;18.43;6.80;;;;;;;-0.11;99.97;101301.13;3740869;77;98986;-85
2021/12/20 18:51:09;;;;;;;15.17;6.23;;;;;;;-0.07;99.96;101314.09;3730562;77;98760;-84
2021/12/20 18:56:10;;;;;;;16.00;6.50;;;;;;;-0.04;99.98;101314.33;3726611;77;98886;-84
2021/12/20 19:01:12;;;;;;;11.30;4.13;;;;;;;-0.01;99.90;101315.09;3725883;77;98883;-83
2021/12/20 19:06:13;;;;;;;10.80;4.83;;;;;;;0.03;99.87;101316.97;3739266;77;30281;-84
2021/12/20 19:16:27;;;;;;;15.63;6.70;;;;;;;0.09;99.81;101336.12;3728812;77;98563;-84
2021/12/20 19:21:29;;;;;;;18.87;6.27;;;;;;;0.15;99.87;101332.80;3696702;78;98733;-85
2021/12/20 19:26:30;;;;;;;16.67;5.33;;;;;;;0.15;99.61;101334.15;3712271;78;98608;-84
2021/12/20 19:31:32;;;;;;;12.10;4.87;;;;;;;0.15;99.51;101344.98;3700762;78;98772;-82
2021/12/20 19:36:34;;;;;;;15.87;5.80;;;;;;;0.12;99.37;101342.86;3703838;78;99018;-82
2021/12/20 19:41:39;;;;;;;15.07;5.53;;;;;;;0.09;99.39;101347.48;3703860;79;99984;-82
2021/12/20 19:46:41;;;;;;;15.73;5.87;;;;;;;0.05;99.38;101348.59;3708566;78;98473;-82
2021/12/20 19:51:42;;;;;;;11.80;4.57;;;;;;;-0.02;99.28;101360.30;3702913;78;99030;-82
2021/12/20 19:56:44;;;;;;;23.70;13.97;;;;;;;-0.05;99.39;101353.31;3709133;78;98881;-82
2021/12/20 20:01:51;;;;;;;22.45;9.25;;;;;;;-0.10;99.30;101353.35;3700915;78;99090;-82
2021/12/20 20:06:53;;;;;;;24.23;9.13;;;;;;;-0.16;99.33;101354.48;3710670;78;98854;-84
2021/12/20 20:11:55;;;;;;;18.47;6.90;;;;;;;-0.21;99.51;101350.47;3700253;78;98522;-83
2021/12/20 20:16:56;;;;;;;16.67;7.37;;;;;;;-0.26;99.76;101349.95;3684874;78;99174;-83
2021/12/20 20:22:03;;;;;;;18.47;6.73;;;;;;;-0.30;99.86;101353.51;3700465;78;98930;-83
2021/12/20 20:27:05;;;;;;;17.93;7.03;;;;;;;-0.37;100.00;101351.11;3699410;78;98927;-84
2021/12/20 20:32:07;;;;;;;15.55;6.62;;;;;;;-0.42;100.00;101348.45;3699540;77;99019;-83
2021/12/20 20:37:10;;;;;;;15.57;6.80;;;;;;;-0.47;100.00;101350.93;3702047;78;99047;-85
2021/12/20 20:42:13;;;;;;;15.70;7.80;;;;;;;-0.53;100.00;101352.88;3684808;78;98933;-85
2021/12/20 20:47:15;;;;;;;15.87;6.40;;;;;;;-0.58;100.00;101352.91;3711093;78;98713;-83
2021/12/20 20:52:16;;;;;;;17.90;8.20;;;;;;;-0.66;100.00;101350.78;3680434;78;98900;-85
2021/12/20 20:57:18;;;;;;;13.93;6.70;;;;;;;-0.73;100.00;101352.21;3702473;78;98952;-84
2021/12/20 21:02:20;;;;;;;17.52;6.78;;;;;;;-0.79;99.89;101359.53;3692799;78;98827;-82
2021/12/20 21:07:22;;;;;;;18.77;8.03;;;;;;;-0.83;99.95;101362.52;3683548;78;98849;-83
2021/12/20 21:12:23;;;;;;;14.63;6.53;;;;;;;-0.86;100.00;101357.69;3695532;78;99266;-82
2021/12/20 21:17:24;;;;;;;15.57;5.97;;;;;;;-0.89;99.94;101357.44;3676429;78;31591;-83
2021/12/20 21:22:28;;;;;;;13.73;6.10;;;;;;;-0.92;99.85;101365.56;3647199;79;99253;-84
2021/12/20 21:27:29;;;;;;;12.47;5.40;;;;;;;-0.93;99.90;101361.22;3656528;79;99085;-84
2021/12/20 21:32:30;;;;;;;17.57;6.03;;;;;;;-0.93;99.97;101366.62;3638855;79;98961;-83
2021/12/20 21:37:31;;;;;;;15.63;6.00;;;;;;;-0.92;100.00;101359.34;3654606;79;99176;-84
2021/12/20 21:42:32;;;;;;;17.13;6.50;;;;;;;-0.93;99.84;101354.46;3643556;79;99625;-83
2021/12/20 21:47:33;;;;;;;16.20;5.70;;;;;;;-0.91;100.00;101358.24;3654790;79;31901;-83
2021/12/20 21:52:34;;;;;;;13.37;5.47;;;;;;;-0.91;100.00;101352.31;3641710;79;98864;-83
2021/12/20 21:57:35;;;;;;;14.47;5.33;;;;;;;-0.92;100.00;101365.56;3654560;79;99107;-84
2021/12/20 22:02:36;;;;;;;15.53;5.00;;;;;;;-0.93;100.00;101363.92;3640274;79;99545;-83
2021/12/20 22:07:37;;;;;;;14.37;6.07;;;;;;;-0.93;100.00;101369.88;3646657;79;99342;-83
2021/12/20 22:12:40;;;;;;;18.12;7.97;;;;;;;-0.93;100.00;101368.53;3644060;79;99230;-84
2021/12/20 22:17:46;;;;;;;15.77;6.20;;;;;;;-0.92;100.00;101379.06;3674522;78;32341;-84
2021/12/20 22:22:46;;;;;;;18.57;5.95;;;;;;;-0.93;100.00;101381.48;3705010;78;99404;-83
2021/12/20 22:27:47;;;;;;;16.97;5.40;;;;;;;-0.93;100.00;101383.39;3700069;77;99053;-84
2021/12/20 22:32:48;;;;;;;12.50;4.90;;;;;;;-0.93;100.00;101390.94;3684176;78;99163;-83
2021/12/20 22:37:49;;;;;;;7.90;3.40;;;;;;;-0.92;100.00;101385.83;3706891;76;99651;-83
2021/12/20 22:42:50;;;;;;;9.60;3.73;;;;;;;-0.94;100.00;101383.92;3729054;77;99012;-85
2021/12/20 22:47:51;;;;;;;11.37;3.77;;;;;;;-0.92;99.98;101380.95;3678647;77;99061;-84
2021/12/20 22:52:52;;;;;;;9.30;3.67;;;;;;;-0.92;100.00;101388.53;3719497;77;98734;-85
2021/12/20 22:57:53;;;;;;;15.37;5.20;;;;;;;-0.92;100.00;101395.28;3701342;77;98721;-84
2021/12/20 23:02:56;;;;;;;9.03;3.30;;;;;;;-0.94;99.83;101389.89;3705568;77;98097;-84
2021/12/20 23:07:57;;;;;;;11.90;4.30;;;;;;;-0.94;99.95;101386.63;3718043;77;98848;-84
2021/12/20 23:13:02;;;;;;;13.10;4.50;;;;;;;-0.90;100.00;101386.88;3706845;77;98886;-84
2021/12/20 23:18:04;;;;;;;13.43;4.87;;;;;;;-0.90;100.00;101384.98;3700857;77;99422;-83
2021/12/20 23:23:07;;;;;;;16.00;4.33;;;;;;;-0.89;99.98;101386.60;3693719;77;98830;-84
2021/12/20 23:28:14;;;;;;;15.13;5.20;;;;;;;-0.85;100.00;101388.20;3700050;78;98775;-84
2021/12/20 23:33:15;;;;;;;;;;;;;;;-0.83;100.00;101392.80;3711683;77;99541;-84
2021/12/20 23:38:23;;;;;;;10.13;4.70;;;;;;;-0.81;100.00;101391.44;3690272;78;86822;-84
2021/12/20 23:43:25;;;;;;;13.38;4.70;;;;;;;-0.79;100.00;101393.84;3693053;77;98951;-84
2021/12/20 23:48:27;;;;;;;13.62;4.10;;;;;;;-0.79;100.00;101389.25;3694631;78;99110;-84
2021/12/20 23:53:30;;;;;;;12.10;4.53;;;;;;;-0.77;100.00;101387.07;3701477;77;26529;-85